sensor_id;sensor_type;location;lat;lon;timestamp;pressure;altitude;pressure_sealevel;temperature;humidity
9077;BME280;4574;51.072;17.174;2022-09-14T00:01:43;99280.06;;;16.96;100.00
9077;BME280;4574;51.072;17.174;2022-09-14T00:04:15;99283.97;;;16.94;100.00
9077;BME280;4574;51.072;17.174;2022-09-14T00:06:44;99276.97;;;16.93;100.00
9077;BME280;4574;51.072;17.174;2022-09-14T00:09:16;99275.34;;;16.85;100.00
9077;BME280;4574;51.072;17.174;2022-09-14T00:11:45;99273.28;;;16.87;100.00
9077;BME280;4574;51.072;17.174;2022-09-14T00:14:17;99273.91;;;16.83;100.00
9077;BME280;4574;51.072;17.174;2022-09-14T00:16:46;99270.00;;;16.79;100.00
9077;BME280;4574;51.072;17.174;2022-09-14T00:19:19;99269.41;;;16.77;100.00
9077;BME280;4574;51.072;17.174;2022-09-14T00:21:50;99276.81;;;16.75;100.00
9077;BME280;4574;51.072;17.174;2022-09-14T00:24:19;99273.75;;;16.71;100.00
9077;BME280;4574;51.072;17.174;2022-09-14T00:26:49;99273.53;;;16.73;100.00
9077;BME280;4574;51.072;17.174;2022-09-14T00:29:19;99267.56;;;16.71;100.00
9077;BME280;4574;51.072;17.174;2022-09-14T00:31:48;99272.91;;;16.71;100.00
9077;BME280;4574;51.072;17.174;2022-09-14T00:34:17;99273.13;;;16.69;100.00
9077;BME280;4574;51.072;17.174;2022-09-14T00:36:48;99263.47;;;16.68;100.00
9077;BME280;4574;51.072;17.174;2022-09-14T00:39:19;99267.19;;;16.67;100.00
9077;BME280;4574;51.072;17.174;2022-09-14T00:41:50;99269.00;;;16.67;100.00
9077;BME280;4574;51.072;17.174;2022-09-14T00:47:37;99271.69;;;16.67;100.00
9077;BME280;4574;51.072;17.174;2022-09-14T00:50:06;99264.69;;;16.66;100.00
9077;BME280;4574;51.072;17.174;2022-09-14T00:52:39;99262.44;;;16.63;100.00
9077;BME280;4574;51.072;17.174;2022-09-14T00:55:11;99274.56;;;16.65;100.00
9077;BME280;4574;51.072;17.174;2022-09-14T00:57:44;99260.59;;;16.63;100.00
9077;BME280;4574;51.072;17.174;2022-09-14T01:00:16;99261.22;;;16.65;100.00
9077;BME280;4574;51.072;17.174;2022-09-14T01:02:46;99275.38;;;16.66;100.00
9077;BME280;4574;51.072;17.174;2022-09-14T01:05:15;99270.88;;;16.66;100.00
9077;BME280;4574;51.072;17.174;2022-09-14T01:07:53;99266.75;;;16.64;100.00
9077;BME280;4574;51.072;17.174;2022-09-14T01:10:32;99267.38;;;16.66;100.00
9077;BME280;4574;51.072;17.174;2022-09-14T01:13:11;99258.72;;;16.64;100.00
9077;BME280;4574;51.072;17.174;2022-09-14T01:15:48;99264.06;;;16.64;100.00
9077;BME280;4574;51.072;17.174;2022-09-14T01:18:26;99261.41;;;16.64;100.00
9077;BME280;4574;51.072;17.174;2022-09-14T01:20:59;99259.75;;;16.63;100.00
9077;BME280;4574;51.072;17.174;2022-09-14T01:23:35;99257.94;;;16.63;100.00
9077;BME280;4574;51.072;17.174;2022-09-14T01:26:36;99263.06;;;16.65;100.00
9077;BME280;4574;51.072;17.174;2022-09-14T01:29:11;99259.75;;;16.63;100.00
9077;BME280;4574;51.072;17.174;2022-09-14T01:31:48;99271.47;;;16.62;100.00
9077;BME280;4574;51.072;17.174;2022-09-14T01:34:23;99263.88;;;16.59;100.00
9077;BME280;4574;51.072;17.174;2022-09-14T01:36:58;99257.72;;;16.58;100.00
9077;BME280;4574;51.072;17.174;2022-09-14T01:39:30;99260.59;;;16.57;100.00
9077;BME280;4574;51.072;17.174;2022-09-14T01:42:00;99260.59;;;16.57;100.00
9077;BME280;4574;51.072;17.174;2022-09-14T01:44:34;99258.94;;;16.56;100.00
9077;BME280;4574;51.072;17.174;2022-09-14T01:47:08;99258.94;;;16.56;100.00
9077;BME280;4574;51.072;17.174;2022-09-14T01:49:41;99253.41;;;16.57;100.00
9077;BME280;4574;51.072;17.174;2022-09-14T01:52:14;99248.88;;;16.58;100.00
9077;BME280;4574;51.072;17.174;2022-09-14T01:54:47;99241.28;;;16.61;100.00
9077;BME280;4574;51.072;17.174;2022-09-14T01:57:20;99239.84;;;16.59;100.00
9077;BME280;4574;51.072;17.174;2022-09-14T01:59:54;99239.66;;;16.60;100.00
9077;BME280;4574;51.072;17.174;2022-09-14T02:02:27;99246.00;;;16.59;100.00
9077;BME280;4574;51.072;17.174;2022-09-14T02:05:02;99233.06;;;16.56;100.00
9077;BME280;4574;51.072;17.174;2022-09-14T02:07:35;99231.41;;;16.62;100.00
9077;BME280;4574;51.072;17.174;2022-09-14T02:10:07;99235.09;;;16.61;100.00
9077;BME280;4574;51.072;17.174;2022-09-14T02:12:38;99235.72;;;16.63;100.00
9077;BME280;4574;51.072;17.174;2022-09-14T02:15:11;99227.09;;;16.61;100.00
9077;BME280;4574;51.072;17.174;2022-09-14T02:17:41;99225.03;;;16.63;100.00
9077;BME280;4574;51.072;17.174;2022-09-14T02:20:14;99223.56;;;16.67;100.00
9077;BME280;4574;51.072;17.174;2022-09-14T02:22:45;99231.81;;;16.65;100.00
9077;BME280;4574;51.072;17.174;2022-09-14T02:25:14;99232.44;;;16.67;100.00
9077;BME280;4574;51.072;17.174;2022-09-14T02:27:43;99226.06;;;16.68;100.00
9077;BME280;4574;51.072;17.174;2022-09-14T02:30:15;99232.19;;;16.69;100.00
9077;BME280;4574;51.072;17.174;2022-09-14T02:32:57;99221.50;;;16.69;100.00
9077;BME280;4574;51.072;17.174;2022-09-14T02:35:36;99221.31;;;16.70;100.00
9077;BME280;4574;51.072;17.174;2022-09-14T02:38:11;99211.84;;;16.68;100.00
9077;BME280;4574;51.072;17.174;2022-09-14T02:40:45;99222.13;;;16.71;100.00
9077;BME280;4574;51.072;17.174;2022-09-14T02:43:27;99221.50;;;16.69;100.00
9077;BME280;4574;51.072;17.174;2022-09-14T02:46:07;99214.09;;;16.71;100.00
9077;BME280;4574;51.072;17.174;2022-09-14T02:48:43;99217.81;;;16.70;100.00
9077;BME280;4574;51.072;17.174;2022-09-14T02:51:23;99221.94;;;16.72;100.00
9077;BME280;4574;51.072;17.174;2022-09-14T02:53:58;99220.06;;;16.73;100.00
9077;BME280;4574;51.072;17.174;2022-09-14T02:56:29;99220.91;;;16.73;100.00
9077;BME280;4574;51.072;17.174;2022-09-14T02:58:57;99217.41;;;16.73;100.00
9077;BME280;4574;51.072;17.174;2022-09-14T03:01:27;99206.69;;;16.73;100.00
9077;BME280;4574;51.072;17.174;2022-09-14T03:03:56;99221.50;;;16.75;100.00
9077;BME280;4574;51.072;17.174;2022-09-14T03:06:25;99223.34;;;16.75;100.00
9077;BME280;4574;51.072;17.174;2022-09-14T03:08:54;99219.66;;;16.76;100.00
9077;BME280;4574;51.072;17.174;2022-09-14T03:11:23;99225.59;;;16.78;100.00
9077;BME280;4574;51.072;17.174;2022-09-14T03:13:51;99214.72;;;16.73;100.00
9077;BME280;4574;51.072;17.174;2022-09-14T03:16:20;99214.91;;;16.78;100.00
9077;BME280;4574;51.072;17.174;2022-09-14T03:18:50;99214.72;;;16.79;100.00
9077;BME280;4574;51.072;17.174;2022-09-14T03:21:19;99210.19;;;16.80;100.00
9077;BME280;4574;51.072;17.174;2022-09-14T03:23:50;99210.59;;;16.77;100.00
9077;BME280;4574;51.072;17.174;2022-09-14T03:26:22;99215.75;;;16.78;100.00
9077;BME280;4574;51.072;17.174;2022-09-14T03:28:52;99201.78;;;16.70;100.00
9077;BME280;4574;51.072;17.174;2022-09-14T03:31:22;99211.63;;;16.76;100.00
9077;BME280;4574;51.072;17.174;2022-09-14T03:33:53;99213.06;;;16.78;100.00
9077;BME280;4574;51.072;17.174;2022-09-14T03:36:23;99205.47;;;16.75;100.00
9077;BME280;4574;51.072;17.174;2022-09-14T03:38:55;99207.13;;;16.76;100.00
9077;BME280;4574;51.072;17.174;2022-09-14T03:41:25;99205.25;;;16.77;100.00
9077;BME280;4574;51.072;17.174;2022-09-14T03:43:53;99203.41;;;16.77;100.00
9077;BME280;4574;51.072;17.174;2022-09-14T03:46:23;99213.06;;;16.78;100.00
9077;BME280;4574;51.072;17.174;2022-09-14T03:48:54;99205.25;;;16.77;100.00
9077;BME280;4574;51.072;17.174;2022-09-14T03:51:23;99205.84;;;16.79;100.00
9077;BME280;4574;51.072;17.174;2022-09-14T03:53:52;99203.19;;;16.79;100.00
9077;BME280;4574;51.072;17.174;2022-09-14T03:56:22;99203.41;;;16.77;100.00
9077;BME280;4574;51.072;17.174;2022-09-14T03:58:51;99199.91;;;16.77;100.00
9077;BME280;4574;51.072;17.174;2022-09-14T04:01:21;99200.94;;;16.76;100.00
9077;BME280;4574;51.072;17.174;2022-09-14T04:03:50;99203.84;;;16.74;100.00
9077;BME280;4574;51.072;17.174;2022-09-14T04:06:20;99203.84;;;16.74;100.00
9077;BME280;4574;51.072;17.174;2022-09-14T04:08:49;99205.06;;;16.72;100.00
9077;BME280;4574;51.072;17.174;2022-09-14T04:11:20;99204.03;;;16.73;100.00
9077;BME280;4574;51.072;17.174;2022-09-14T04:13:49;99205.06;;;16.72;100.00
9077;BME280;4574;51.072;17.174;2022-09-14T04:16:19;99199.72;;;16.72;100.00
9077;BME280;4574;51.072;17.174;2022-09-14T04:18:48;99202.38;;;16.72;100.00
9077;BME280;4574;51.072;17.174;2022-09-14T04:21:20;99203.41;;;16.71;100.00
9077;BME280;4574;51.072;17.174;2022-09-14T04:23:51;63291.66;;;-139.42;100.00
9077;BME280;4574;51.072;17.174;2022-09-14T04:26:41;63291.66;;;-139.42;100.00
9077;BME280;4574;51.072;17.174;2022-09-14T04:29:10;63291.66;;;-139.42;100.00
9077;BME280;4574;51.072;17.174;2022-09-14T04:31:44;63291.66;;;-139.42;100.00
9077;BME280;4574;51.072;17.174;2022-09-14T04:34:20;63291.66;;;-139.42;100.00
9077;BME280;4574;51.072;17.174;2022-09-14T04:36:50;63291.66;;;-139.42;100.00
9077;BME280;4574;51.072;17.174;2022-09-14T04:39:19;63291.66;;;-139.42;100.00
9077;BME280;4574;51.072;17.174;2022-09-14T04:41:48;63291.66;;;-139.42;100.00
9077;BME280;4574;51.072;17.174;2022-09-14T04:44:17;63291.66;;;-139.42;100.00
9077;BME280;4574;51.072;17.174;2022-09-14T04:46:46;63291.66;;;-139.42;100.00
9077;BME280;4574;51.072;17.174;2022-09-14T04:49:14;63291.66;;;-139.42;100.00
9077;BME280;4574;51.072;17.174;2022-09-14T04:51:44;63291.66;;;-139.42;100.00
9077;BME280;4574;51.072;17.174;2022-09-14T04:54:16;63291.66;;;-139.42;100.00
9077;BME280;4574;51.072;17.174;2022-09-14T04:56:44;63291.66;;;-139.42;100.00
9077;BME280;4574;51.072;17.174;2022-09-14T04:59:13;63291.66;;;-139.42;100.00
9077;BME280;4574;51.072;17.174;2022-09-14T05:01:44;63291.66;;;-139.42;100.00
9077;BME280;4574;51.072;17.174;2022-09-14T05:04:13;63291.66;;;-139.42;100.00
9077;BME280;4574;51.072;17.174;2022-09-14T05:06:42;63291.66;;;-139.42;100.00
9077;BME280;4574;51.072;17.174;2022-09-14T05:09:15;63291.66;;;-139.42;100.00
9077;BME280;4574;51.072;17.174;2022-09-14T05:11:44;63291.66;;;-139.42;100.00
9077;BME280;4574;51.072;17.174;2022-09-14T05:14:15;63291.66;;;-139.42;100.00
9077;BME280;4574;51.072;17.174;2022-09-14T05:16:45;63291.66;;;-139.42;100.00
9077;BME280;4574;51.072;17.174;2022-09-14T05:19:16;63291.66;;;-139.42;100.00
9077;BME280;4574;51.072;17.174;2022-09-14T05:21:45;63291.66;;;-139.42;100.00
9077;BME280;4574;51.072;17.174;2022-09-14T05:24:17;63291.66;;;-139.42;100.00
9077;BME280;4574;51.072;17.174;2022-09-14T05:26:46;63291.66;;;-139.42;100.00
9077;BME280;4574;51.072;17.174;2022-09-14T05:29:16;63291.66;;;-139.42;100.00
9077;BME280;4574;51.072;17.174;2022-09-14T05:31:49;63291.66;;;-139.42;100.00
9077;BME280;4574;51.072;17.174;2022-09-14T05:34:19;63291.66;;;-139.42;100.00
9077;BME280;4574;51.072;17.174;2022-09-14T05:36:48;63291.66;;;-139.42;100.00
9077;BME280;4574;51.072;17.174;2022-09-14T05:39:18;63291.66;;;-139.42;100.00
9077;BME280;4574;51.072;17.174;2022-09-14T05:41:49;63291.66;;;-139.42;100.00
9077;BME280;4574;51.072;17.174;2022-09-14T05:44:20;63291.66;;;-139.42;100.00
9077;BME280;4574;51.072;17.174;2022-09-14T05:46:49;63291.66;;;-139.42;100.00
9077;BME280;4574;51.072;17.174;2022-09-14T05:49:18;63291.66;;;-139.42;100.00
9077;BME280;4574;51.072;17.174;2022-09-14T05:51:46;63291.66;;;-139.42;100.00
9077;BME280;4574;51.072;17.174;2022-09-14T05:54:15;63291.66;;;-139.42;100.00
9077;BME280;4574;51.072;17.174;2022-09-14T05:56:45;63291.66;;;-139.42;100.00
9077;BME280;4574;51.072;17.174;2022-09-14T05:59:16;63291.66;;;-139.42;100.00
9077;BME280;4574;51.072;17.174;2022-09-14T06:01:44;63291.66;;;-139.42;100.00
9077;BME280;4574;51.072;17.174;2022-09-14T06:04:13;63291.66;;;-139.42;100.00
9077;BME280;4574;51.072;17.174;2022-09-14T06:06:42;63291.66;;;-139.42;100.00
9077;BME280;4574;51.072;17.174;2022-09-14T06:09:30;63291.66;;;-139.42;100.00
9077;BME280;4574;51.072;17.174;2022-09-14T06:12:01;63291.66;;;-139.42;100.00
9077;BME280;4574;51.072;17.174;2022-09-14T06:14:29;63291.66;;;-139.42;100.00
9077;BME280;4574;51.072;17.174;2022-09-14T06:16:58;63291.66;;;-139.42;100.00
9077;BME280;4574;51.072;17.174;2022-09-14T06:19:27;63291.66;;;-139.42;100.00
9077;BME280;4574;51.072;17.174;2022-09-14T06:21:56;63291.66;;;-139.42;100.00
9077;BME280;4574;51.072;17.174;2022-09-14T06:24:24;63291.66;;;-139.42;100.00
9077;BME280;4574;51.072;17.174;2022-09-14T06:26:53;63291.66;;;-139.42;100.00
9077;BME280;4574;51.072;17.174;2022-09-14T06:29:23;63291.66;;;-139.42;100.00
9077;BME280;4574;51.072;17.174;2022-09-14T06:31:53;63291.66;;;-139.42;100.00
9077;BME280;4574;51.072;17.174;2022-09-14T06:34:21;63291.66;;;-139.42;100.00
9077;BME280;4574;51.072;17.174;2022-09-14T06:36:50;63291.66;;;-139.42;100.00
9077;BME280;4574;51.072;17.174;2022-09-14T06:39:19;63291.66;;;-139.42;100.00
9077;BME280;4574;51.072;17.174;2022-09-14T06:41:48;63291.66;;;-139.42;100.00
9077;BME280;4574;51.072;17.174;2022-09-14T06:44:18;63291.66;;;-139.42;100.00
9077;BME280;4574;51.072;17.174;2022-09-14T06:46:48;63291.66;;;-139.42;100.00
9077;BME280;4574;51.072;17.174;2022-09-14T06:49:17;63291.66;;;-139.42;100.00
9077;BME280;4574;51.072;17.174;2022-09-14T06:51:49;63291.66;;;-139.42;100.00
9077;BME280;4574;51.072;17.174;2022-09-14T06:54:20;63291.66;;;-139.42;100.00
9077;BME280;4574;51.072;17.174;2022-09-14T06:56:49;63291.66;;;-139.42;100.00
9077;BME280;4574;51.072;17.174;2022-09-14T06:59:18;63291.66;;;-139.42;100.00
9077;BME280;4574;51.072;17.174;2022-09-14T07:01:48;63291.66;;;-139.42;100.00
9077;BME280;4574;51.072;17.174;2022-09-14T07:04:17;63291.66;;;-139.42;100.00
9077;BME280;4574;51.072;17.174;2022-09-14T07:06:47;63291.66;;;-139.42;100.00
9077;BME280;4574;51.072;17.174;2022-09-14T07:09:17;63291.66;;;-139.42;100.00
9077;BME280;4574;51.072;17.174;2022-09-14T07:11:46;63291.66;;;-139.42;100.00
9077;BME280;4574;51.072;17.174;2022-09-14T07:14:15;63291.66;;;-139.42;100.00
9077;BME280;4574;51.072;17.174;2022-09-14T07:16:43;63291.66;;;-139.42;100.00
9077;BME280;4574;51.072;17.174;2022-09-14T07:19:14;63291.66;;;-139.42;100.00
9077;BME280;4574;51.072;17.174;2022-09-14T07:21:42;63291.66;;;-139.42;100.00
9077;BME280;4574;51.072;17.174;2022-09-14T07:24:11;63291.66;;;-139.42;100.00
9077;BME280;4574;51.072;17.174;2022-09-14T07:26:41;63291.66;;;-139.42;100.00
9077;BME280;4574;51.072;17.174;2022-09-14T07:29:12;63291.66;;;-139.42;100.00
9077;BME280;4574;51.072;17.174;2022-09-14T07:31:43;63291.66;;;-139.42;100.00
9077;BME280;4574;51.072;17.174;2022-09-14T07:34:13;63291.66;;;-139.42;100.00
9077;BME280;4574;51.072;17.174;2022-09-14T07:36:42;63291.66;;;-139.42;100.00
9077;BME280;4574;51.072;17.174;2022-09-14T07:39:13;63291.66;;;-139.42;100.00
9077;BME280;4574;51.072;17.174;2022-09-14T07:41:42;63291.66;;;-139.42;100.00
9077;BME280;4574;51.072;17.174;2022-09-14T07:44:14;63291.66;;;-139.42;100.00
9077;BME280;4574;51.072;17.174;2022-09-14T07:46:45;63291.66;;;-139.42;100.00
9077;BME280;4574;51.072;17.174;2022-09-14T07:49:15;63291.66;;;-139.42;100.00
9077;BME280;4574;51.072;17.174;2022-09-14T07:51:45;63291.66;;;-139.42;100.00
9077;BME280;4574;51.072;17.174;2022-09-14T07:54:16;63291.66;;;-139.42;100.00
9077;BME280;4574;51.072;17.174;2022-09-14T07:56:45;63291.66;;;-139.42;100.00
9077;BME280;4574;51.072;17.174;2022-09-14T07:59:15;63291.66;;;-139.42;100.00
9077;BME280;4574;51.072;17.174;2022-09-14T08:02:05;63291.66;;;-139.42;100.00
9077;BME280;4574;51.072;17.174;2022-09-14T08:04:36;63291.66;;;-139.42;100.00
9077;BME280;4574;51.072;17.174;2022-09-14T08:07:06;63291.66;;;-139.42;100.00
9077;BME280;4574;51.072;17.174;2022-09-14T08:09:36;63291.66;;;-139.42;100.00
9077;BME280;4574;51.072;17.174;2022-09-14T08:12:05;63291.66;;;-139.42;100.00
9077;BME280;4574;51.072;17.174;2022-09-14T08:14:34;63291.66;;;-139.42;100.00
9077;BME280;4574;51.072;17.174;2022-09-14T08:17:03;63291.66;;;-139.42;100.00
9077;BME280;4574;51.072;17.174;2022-09-14T08:19:31;63291.66;;;-139.42;100.00
9077;BME280;4574;51.072;17.174;2022-09-14T08:22:02;63291.66;;;-139.42;100.00
9077;BME280;4574;51.072;17.174;2022-09-14T08:24:31;63291.66;;;-139.42;100.00
9077;BME280;4574;51.072;17.174;2022-09-14T08:27:00;63291.66;;;-139.42;100.00
9077;BME280;4574;51.072;17.174;2022-09-14T08:29:28;63291.66;;;-139.42;100.00
9077;BME280;4574;51.072;17.174;2022-09-14T08:31:57;63291.66;;;-139.42;100.00
9077;BME280;4574;51.072;17.174;2022-09-14T08:34:26;63291.66;;;-139.42;100.00
9077;BME280;4574;51.072;17.174;2022-09-14T08:36:55;63291.66;;;-139.42;100.00
9077;BME280;4574;51.072;17.174;2022-09-14T08:39:25;63291.66;;;-139.42;100.00
9077;BME280;4574;51.072;17.174;2022-09-14T08:41:56;63291.66;;;-139.42;100.00
9077;BME280;4574;51.072;17.174;2022-09-14T08:44:29;63291.66;;;-139.42;100.00
9077;BME280;4574;51.072;17.174;2022-09-14T08:47:00;63291.66;;;-139.42;100.00
9077;BME280;4574;51.072;17.174;2022-09-14T08:49:44;63291.66;;;-139.42;100.00
9077;BME280;4574;51.072;17.174;2022-09-14T08:52:21;63291.66;;;-139.42;100.00
9077;BME280;4574;51.072;17.174;2022-09-14T08:54:54;63291.66;;;-139.42;100.00
9077;BME280;4574;51.072;17.174;2022-09-14T08:57:28;63291.66;;;-139.42;100.00
9077;BME280;4574;51.072;17.174;2022-09-14T09:00:05;63291.66;;;-139.42;100.00
9077;BME280;4574;51.072;17.174;2022-09-14T09:02:47;63291.66;;;-139.42;100.00
9077;BME280;4574;51.072;17.174;2022-09-14T09:05:29;63291.66;;;-139.42;100.00
9077;BME280;4574;51.072;17.174;2022-09-14T09:08:05;63291.66;;;-139.42;100.00
9077;BME280;4574;51.072;17.174;2022-09-14T09:10:38;63291.66;;;-139.42;100.00
9077;BME280;4574;51.072;17.174;2022-09-14T09:13:11;63291.66;;;-139.42;100.00
9077;BME280;4574;51.072;17.174;2022-09-14T09:15:44;63291.66;;;-139.42;100.00
9077;BME280;4574;51.072;17.174;2022-09-14T09:18:18;63291.66;;;-139.42;100.00
9077;BME280;4574;51.072;17.174;2022-09-14T09:20:51;63291.66;;;-139.42;100.00
9077;BME280;4574;51.072;17.174;2022-09-14T09:23:23;63291.66;;;-139.42;100.00
9077;BME280;4574;51.072;17.174;2022-09-14T09:25:56;63291.66;;;-139.42;100.00
9077;BME280;4574;51.072;17.174;2022-09-14T09:28:27;63291.66;;;-139.42;100.00
9077;BME280;4574;51.072;17.174;2022-09-14T09:30:58;63291.66;;;-139.42;100.00
9077;BME280;4574;51.072;17.174;2022-09-14T09:33:31;63291.66;;;-139.42;100.00
9077;BME280;4574;51.072;17.174;2022-09-14T09:36:00;63291.66;;;-139.42;100.00
9077;BME280;4574;51.072;17.174;2022-09-14T09:38:29;63291.66;;;-139.42;100.00
9077;BME280;4574;51.072;17.174;2022-09-14T09:41:04;63291.66;;;-139.42;100.00
9077;BME280;4574;51.072;17.174;2022-09-14T09:43:56;63291.66;;;-139.42;100.00
9077;BME280;4574;51.072;17.174;2022-09-14T09:46:26;63291.66;;;-139.42;100.00
9077;BME280;4574;51.072;17.174;2022-09-14T09:48:56;63291.66;;;-139.42;100.00
9077;BME280;4574;51.072;17.174;2022-09-14T09:51:27;63291.66;;;-139.42;100.00
9077;BME280;4574;51.072;17.174;2022-09-14T09:54:04;63291.66;;;-139.42;100.00
9077;BME280;4574;51.072;17.174;2022-09-14T09:56:39;63291.66;;;-139.42;100.00
9077;BME280;4574;51.072;17.174;2022-09-14T09:59:26;63291.66;;;-139.42;100.00
9077;BME280;4574;51.072;17.174;2022-09-14T10:01:56;63291.66;;;-139.42;100.00
9077;BME280;4574;51.072;17.174;2022-09-14T10:04:56;63291.66;;;-139.42;100.00
9077;BME280;4574;51.072;17.174;2022-09-14T10:07:25;63291.66;;;-139.42;100.00
9077;BME280;4574;51.072;17.174;2022-09-14T10:09:59;63291.66;;;-139.42;100.00
9077;BME280;4574;51.072;17.174;2022-09-14T10:12:30;63291.66;;;-139.42;100.00
9077;BME280;4574;51.072;17.174;2022-09-14T10:15:09;63291.66;;;-139.42;100.00
9077;BME280;4574;51.072;17.174;2022-09-14T10:17:53;63291.66;;;-139.42;100.00
9077;BME280;4574;51.072;17.174;2022-09-14T10:20:23;63291.66;;;-139.42;100.00
9077;BME280;4574;51.072;17.174;2022-09-14T10:22:53;63291.66;;;-139.42;100.00
9077;BME280;4574;51.072;17.174;2022-09-14T10:25:23;63291.66;;;-139.42;100.00
9077;BME280;4574;51.072;17.174;2022-09-14T10:27:59;63291.66;;;-139.42;100.00
9077;BME280;4574;51.072;17.174;2022-09-14T10:30:32;63291.66;;;-139.42;100.00
9077;BME280;4574;51.072;17.174;2022-09-14T10:33:03;63291.66;;;-139.42;100.00
9077;BME280;4574;51.072;17.174;2022-09-14T10:35:39;63291.66;;;-139.42;100.00
9077;BME280;4574;51.072;17.174;2022-09-14T10:38:29;63291.66;;;-139.42;100.00
9077;BME280;4574;51.072;17.174;2022-09-14T10:41:16;63291.66;;;-139.42;100.00
9077;BME280;4574;51.072;17.174;2022-09-14T10:44:06;63291.66;;;-139.42;100.00
9077;BME280;4574;51.072;17.174;2022-09-14T10:46:44;63291.66;;;-139.42;100.00
9077;BME280;4574;51.072;17.174;2022-09-14T10:49:27;63291.66;;;-139.42;100.00
9077;BME280;4574;51.072;17.174;2022-09-14T10:52:11;63291.66;;;-139.42;100.00
9077;BME280;4574;51.072;17.174;2022-09-14T10:57:46;63291.66;;;-139.42;100.00
9077;BME280;4574;51.072;17.174;2022-09-14T11:00:19;63291.66;;;-139.42;100.00
9077;BME280;4574;51.072;17.174;2022-09-14T11:03:18;63291.66;;;-139.42;100.00
9077;BME280;4574;51.072;17.174;2022-09-14T11:05:59;63291.66;;;-139.42;100.00
9077;BME280;4574;51.072;17.174;2022-09-14T11:08:33;63291.66;;;-139.42;100.00
9077;BME280;4574;51.072;17.174;2022-09-14T11:11:18;63291.66;;;-139.42;100.00
9077;BME280;4574;51.072;17.174;2022-09-14T11:13:59;63291.66;;;-139.42;100.00
9077;BME280;4574;51.072;17.174;2022-09-14T11:16:51;63291.66;;;-139.42;100.00
9077;BME280;4574;51.072;17.174;2022-09-14T11:19:29;63291.66;;;-139.42;100.00
9077;BME280;4574;51.072;17.174;2022-09-14T11:22:02;63291.66;;;-139.42;100.00
9077;BME280;4574;51.072;17.174;2022-09-14T11:24:36;63291.66;;;-139.42;100.00
9077;BME280;4574;51.072;17.174;2022-09-14T11:27:10;63291.66;;;-139.42;100.00
9077;BME280;4574;51.072;17.174;2022-09-14T11:29:47;63291.66;;;-139.42;100.00
9077;BME280;4574;51.072;17.174;2022-09-14T11:32:22;63291.66;;;-139.42;100.00
9077;BME280;4574;51.072;17.174;2022-09-14T11:34:55;63291.66;;;-139.42;100.00
9077;BME280;4574;51.072;17.174;2022-09-14T11:37:31;63291.66;;;-139.42;100.00
9077;BME280;4574;51.072;17.174;2022-09-14T11:40:07;63291.66;;;-139.42;100.00
9077;BME280;4574;51.072;17.174;2022-09-14T11:42:48;63291.66;;;-139.42;100.00
9077;BME280;4574;51.072;17.174;2022-09-14T11:45:21;63291.66;;;-139.42;100.00
9077;BME280;4574;51.072;17.174;2022-09-14T11:47:58;63291.66;;;-139.42;100.00
9077;BME280;4574;51.072;17.174;2022-09-14T11:50:29;63291.66;;;-139.42;100.00
9077;BME280;4574;51.072;17.174;2022-09-14T11:53:02;63291.66;;;-139.42;100.00
9077;BME280;4574;51.072;17.174;2022-09-14T11:55:36;63291.66;;;-139.42;100.00
9077;BME280;4574;51.072;17.174;2022-09-14T11:58:17;63291.66;;;-139.42;100.00
9077;BME280;4574;51.072;17.174;2022-09-14T12:01:30;63291.66;;;-139.42;100.00
9077;BME280;4574;51.072;17.174;2022-09-14T12:04:09;63291.66;;;-139.42;100.00
9077;BME280;4574;51.072;17.174;2022-09-14T12:07:02;63291.66;;;-139.42;100.00
9077;BME280;4574;51.072;17.174;2022-09-14T12:09:42;63291.66;;;-139.42;100.00
9077;BME280;4574;51.072;17.174;2022-09-14T12:12:30;63291.66;;;-139.42;100.00
9077;BME280;4574;51.072;17.174;2022-09-14T12:15:01;63291.66;;;-139.42;100.00
9077;BME280;4574;51.072;17.174;2022-09-14T12:17:32;63291.66;;;-139.42;100.00
9077;BME280;4574;51.072;17.174;2022-09-14T12:20:35;63291.66;;;-139.42;100.00
9077;BME280;4574;51.072;17.174;2022-09-14T12:23:21;63291.66;;;-139.42;100.00
9077;BME280;4574;51.072;17.174;2022-09-14T12:25:57;63291.66;;;-139.42;100.00
9077;BME280;4574;51.072;17.174;2022-09-14T12:28:35;63291.66;;;-139.42;100.00
9077;BME280;4574;51.072;17.174;2022-09-14T12:31:08;63291.66;;;-139.42;100.00
9077;BME280;4574;51.072;17.174;2022-09-14T12:46:35;63291.66;;;-139.42;100.00
9077;BME280;4574;51.072;17.174;2022-09-14T12:49:27;63291.66;;;-139.42;100.00
9077;BME280;4574;51.072;17.174;2022-09-14T12:52:04;63291.66;;;-139.42;100.00
9077;BME280;4574;51.072;17.174;2022-09-14T12:54:54;63291.66;;;-139.42;100.00
9077;BME280;4574;51.072;17.174;2022-09-14T12:57:32;63291.66;;;-139.42;100.00
9077;BME280;4574;51.072;17.174;2022-09-14T13:00:09;63291.66;;;-139.42;100.00
9077;BME280;4574;51.072;17.174;2022-09-14T13:05:44;63291.66;;;-139.42;100.00
9077;BME280;4574;51.072;17.174;2022-09-14T13:08:22;63291.66;;;-139.42;100.00
9077;BME280;4574;51.072;17.174;2022-09-14T13:10:52;63291.66;;;-139.42;100.00
9077;BME280;4574;51.072;17.174;2022-09-14T13:13:24;63291.66;;;-139.42;100.00
9077;BME280;4574;51.072;17.174;2022-09-14T13:15:58;63291.66;;;-139.42;100.00
9077;BME280;4574;51.072;17.174;2022-09-14T13:18:32;63291.66;;;-139.42;100.00
9077;BME280;4574;51.072;17.174;2022-09-14T13:21:11;63291.66;;;-139.42;100.00
9077;BME280;4574;51.072;17.174;2022-09-14T13:23:47;63291.66;;;-139.42;100.00
9077;BME280;4574;51.072;17.174;2022-09-14T13:26:21;63291.66;;;-139.42;100.00
9077;BME280;4574;51.072;17.174;2022-09-14T13:28:54;63291.66;;;-139.42;100.00
9077;BME280;4574;51.072;17.174;2022-09-14T13:31:28;63291.66;;;-139.42;100.00
9077;BME280;4574;51.072;17.174;2022-09-14T13:34:00;63291.66;;;-139.42;100.00
9077;BME280;4574;51.072;17.174;2022-09-14T13:36:34;63291.66;;;-139.42;100.00
9077;BME280;4574;51.072;17.174;2022-09-14T13:39:13;63291.66;;;-139.42;100.00